Time;durP1;ratioP1;P1;durP2;ratioP2;P2;SDS_P1;SDS_P2;PMS_P1;PMS_P2;Temp;Humidity;BMP_temperature;BMP_pressure;BME280_temperature;BME280_humidity;BME280_pressure;Samples;Min_cycle;Max_cycle;Signal;HPM_P1;HPM_P2
2023/10/25 00:01:39;;;;;;;1104.27;927.17;;;7.50;99.90;;;;;;5015032;28;20461;-72
2023/10/25 00:04:06;;;;;;;1113.13;928.13;;;7.50;99.90;;;;;;5015272;28;20510;-73
2023/10/25 00:06:34;;;;;;;1115.87;926.40;;;7.50;99.90;;;;;;5015114;28;20813;-73
2023/10/25 00:09:01;;;;;;;1119.63;928.80;;;7.50;99.90;;;;;;5014579;28;20445;-73
2023/10/25 00:11:28;;;;;;;1134.27;934.53;;;7.50;99.90;;;;;;5015281;28;20449;-73
2023/10/25 00:13:56;;;;;;;1139.57;933.67;;;7.40;99.90;;;;;;5014739;28;20465;-73
2023/10/25 00:16:23;;;;;;;1142.87;925.17;;;7.40;99.90;;;;;;5014922;28;20485;-73
2023/10/25 00:18:50;;;;;;;1141.57;928.47;;;7.40;99.90;;;;;;5014913;28;20485;-73
2023/10/25 00:21:17;;;;;;;1154.10;927.90;;;7.30;99.90;;;;;;5014896;28;20457;-73
2023/10/25 00:23:44;;;;;;;1161.70;925.10;;;7.30;99.90;;;;;;5014756;28;20519;-73
2023/10/25 00:26:11;;;;;;;1170.10;930.63;;;7.30;99.90;;;;;;5014504;28;20485;-73
2023/10/25 00:28:38;;;;;;;1161.07;936.83;;;7.30;99.90;;;;;;5014717;28;20456;-73
2023/10/25 00:31:06;;;;;;;1168.53;922.37;;;7.30;99.90;;;;;;5014492;28;20952;-73
2023/10/25 00:33:33;;;;;;;1171.47;931.30;;;7.20;99.90;;;;;;5014590;28;20453;-73
2023/10/25 00:36:00;;;;;;;1176.07;926.50;;;7.30;99.90;;;;;;5014418;28;20460;-73
2023/10/25 00:38:27;;;;;;;1172.73;932.67;;;7.20;99.90;;;;;;5014299;28;20490;-73
2023/10/25 00:40:53;;;;;;;1182.77;932.00;;;7.20;99.90;;;;;;5014253;28;20453;-73
2023/10/25 00:43:22;;;;;;;1188.10;931.70;;;7.20;99.90;;;;;;5014319;28;20457;-73
2023/10/25 00:46:11;;;;;;;1180.23;918.87;;;7.20;99.90;;;;;;5014322;28;20467;-73
2023/10/25 00:48:39;;;;;;;1186.97;923.60;;;7.20;99.90;;;;;;5014374;28;20441;-73
2023/10/25 00:51:08;;;;;;;1184.30;920.23;;;7.20;99.90;;;;;;5014190;28;20452;-73
2023/10/25 00:53:38;;;;;;;1188.13;928.00;;;7.20;99.90;;;;;;5014004;28;20445;-73
2023/10/25 00:56:07;;;;;;;1191.03;924.87;;;7.10;99.90;;;;;;5014537;28;20449;-73
2023/10/25 00:58:34;;;;;;;1193.00;926.67;;;7.10;99.90;;;;;;5013958;28;21030;-73
2023/10/25 01:01:01;;;;;;;1208.30;942.33;;;7.10;99.90;;;;;;5013979;28;20449;-73
2023/10/25 01:03:29;;;;;;;1202.07;923.23;;;7.10;99.90;;;;;;5013920;28;20551;-73
2023/10/25 01:05:56;;;;;;;1220.40;931.33;;;7.20;99.90;;;;;;5013976;28;20449;-73
2023/10/25 01:08:23;;;;;;;1208.80;932.93;;;7.20;99.90;;;;;;5013884;28;20449;-73
2023/10/25 01:10:51;;;;;;;1217.60;935.33;;;7.20;99.90;;;;;;5013788;28;20449;-73
2023/10/25 01:13:18;;;;;;;1213.87;932.80;;;7.20;99.90;;;;;;5013861;28;20460;-73
2023/10/25 01:15:46;;;;;;;1217.10;928.27;;;7.20;99.90;;;;;;5013517;28;20464;-73
2023/10/25 01:18:12;;;;;;;1215.40;926.40;;;7.20;99.90;;;;;;5013604;28;20520;-73
2023/10/25 01:20:41;;;;;;;1216.90;943.10;;;7.20;99.90;;;;;;5012637;28;20459;-73
2023/10/25 01:23:09;;;;;;;1216.23;934.83;;;7.20;99.90;;;;;;5013701;28;20460;-73
2023/10/25 01:25:37;;;;;;;1213.67;923.03;;;7.10;99.90;;;;;;5013604;28;20459;-73
2023/10/25 01:28:05;;;;;;;1221.10;912.03;;;7.10;99.90;;;;;;5013542;28;20445;-73
2023/10/25 01:30:32;;;;;;;1227.57;922.07;;;7.10;99.90;;;;;;5013396;28;20492;-73
2023/10/25 01:32:59;;;;;;;1221.23;912.03;;;7.10;99.90;;;;;;5013220;28;20457;-73
2023/10/25 01:35:26;;;;;;;1215.57;926.70;;;7.00;99.90;;;;;;5013203;28;20933;-73
2023/10/25 01:37:53;;;;;;;1216.67;926.83;;;7.00;99.90;;;;;;5013226;28;20492;-73
2023/10/25 01:40:21;;;;;;;1221.10;918.90;;;7.00;99.90;;;;;;5013451;28;20453;-73
2023/10/25 01:42:51;;;;;;;1223.13;917.37;;;7.00;99.90;;;;;;5013261;28;20548;-73
2023/10/25 01:45:18;;;;;;;1224.40;921.57;;;7.00;99.90;;;;;;5013101;28;20496;-73
2023/10/25 01:47:44;;;;;;;1228.23;918.50;;;7.00;99.90;;;;;;5013099;28;20449;-73
2023/10/25 01:50:11;;;;;;;1234.77;923.20;;;7.00;99.90;;;;;;5013312;28;20453;-73
2023/10/25 01:52:40;;;;;;;1228.77;907.63;;;6.90;99.90;;;;;;5013244;28;20457;-73
2023/10/25 01:55:07;;;;;;;1228.83;909.77;;;6.90;99.90;;;;;;5012981;28;20459;-74
2023/10/25 01:57:36;;;;;;;1237.43;906.60;;;6.80;99.90;;;;;;5012999;28;20482;-74
2023/10/25 02:00:06;;;;;;;1240.27;922.63;;;6.80;99.90;;;;;;5012744;28;20481;-74
2023/10/25 02:02:33;;;;;;;1253.17;927.13;;;6.80;99.90;;;;;;5013139;28;20456;-74
2023/10/25 02:05:00;;;;;;;1249.87;922.03;;;6.80;99.90;;;;;;5012944;28;20454;-74
2023/10/25 02:07:27;;;;;;;1260.17;919.80;;;6.80;99.90;;;;;;5012881;28;20468;-74
2023/10/25 02:09:53;;;;;;;1245.80;917.83;;;6.80;99.90;;;;;;5012863;28;20452;-74
2023/10/25 02:12:20;;;;;;;1251.60;922.17;;;6.80;99.90;;;;;;5012789;28;20823;-74
2023/10/25 02:14:48;;;;;;;1253.00;922.17;;;6.90;99.90;;;;;;5012813;28;20475;-74
2023/10/25 02:17:15;;;;;;;1252.87;920.07;;;7.00;99.90;;;;;;5012806;28;20456;-74
2023/10/25 02:19:42;;;;;;;1248.93;916.80;;;7.00;99.90;;;;;;5012685;28;20481;-74
2023/10/25 02:22:09;;;;;;;1253.80;913.77;;;7.00;99.90;;;;;;5012689;28;20479;-74
2023/10/25 02:24:36;;;;;;;1261.77;928.47;;;7.10;99.90;;;;;;5012719;28;20544;-74
2023/10/25 02:27:03;;;;;;;1257.87;910.80;;;7.10;99.90;;;;;;5012475;28;20450;-74
2023/10/25 02:29:31;;;;;;;1255.57;899.03;;;7.10;99.90;;;;;;5012496;28;20455;-74
2023/10/25 02:31:59;;;;;;;1261.57;910.80;;;7.10;99.90;;;;;;5012437;28;20539;-74
2023/10/25 02:34:26;;;;;;;1262.87;888.27;;;7.10;99.90;;;;;;5012674;28;20824;-74
2023/10/25 02:36:53;;;;;;;1261.60;887.37;;;7.10;99.90;;;;;;5012876;28;20545;-74
2023/10/25 02:39:20;;;;;;;1264.17;887.33;;;7.00;99.90;;;;;;5012447;28;20476;-74
2023/10/25 02:41:46;;;;;;;1264.87;894.80;;;7.10;99.90;;;;;;5012376;28;20453;-74
2023/10/25 02:44:15;;;;;;;1268.50;894.23;;;7.10;99.90;;;;;;5012221;28;20534;-74
2023/10/25 02:46:42;;;;;;;1269.67;903.63;;;7.10;99.90;;;;;;5012262;28;20548;-74
2023/10/25 02:49:10;;;;;;;1267.90;905.17;;;7.20;99.90;;;;;;5012485;28;20456;-74
2023/10/25 02:51:38;;;;;;;1262.57;904.77;;;7.20;99.90;;;;;;5012456;28;20976;-74
2023/10/25 02:54:05;;;;;;;1258.30;906.77;;;7.20;99.90;;;;;;5012403;28;20539;-74
2023/10/25 02:56:32;;;;;;;1256.77;895.40;;;7.30;99.90;;;;;;5012514;28;20532;-74
2023/10/25 02:58:59;;;;;;;1253.60;890.77;;;7.30;99.90;;;;;;5012449;28;20484;-74
2023/10/25 03:01:26;;;;;;;1257.90;899.00;;;7.30;99.90;;;;;;5012456;28;20831;-74
2023/10/25 03:03:53;;;;;;;1259.23;910.50;;;7.30;99.90;;;;;;5012396;28;20460;-74
2023/10/25 03:06:21;;;;;;;1259.27;900.50;;;7.30;99.90;;;;;;5012081;28;20480;-74
2023/10/25 03:08:48;;;;;;;1261.40;916.00;;;7.20;99.90;;;;;;5012188;28;20933;-74
2023/10/25 03:11:15;;;;;;;1272.57;925.33;;;7.20;99.90;;;;;;5012010;28;20449;-75
2023/10/25 03:13:42;;;;;;;1270.23;923.90;;;7.20;99.90;;;;;;5012053;28;20531;-74
2023/10/25 03:16:09;;;;;;;1255.37;921.80;;;7.20;99.90;;;;;;5012007;28;20463;-74
2023/10/25 03:18:35;;;;;;;1273.80;920.70;;;7.10;99.90;;;;;;5012321;28;20484;-74
2023/10/25 03:21:03;;;;;;;1263.97;906.40;;;7.10;99.90;;;;;;5012134;28;20797;-74
2023/10/25 03:23:31;;;;;;;1261.00;900.30;;;7.00;99.90;;;;;;5012368;28;20936;-74
2023/10/25 03:26:03;;;;;;;1267.77;912.33;;;7.00;99.90;;;;;;5011802;28;20963;-74
2023/10/25 03:28:30;;;;;;;1262.00;879.20;;;7.00;99.90;;;;;;5012171;28;20456;-74
2023/10/25 03:30:57;;;;;;;1261.73;901.40;;;7.00;99.90;;;;;;5012203;28;20480;-74
2023/10/25 03:33:24;;;;;;;1249.67;885.83;;;7.00;99.90;;;;;;5012169;28;20458;-74
2023/10/25 03:35:54;;;;;;;1255.47;889.50;;;7.10;99.90;;;;;;5012112;28;20555;-75
2023/10/25 03:38:21;;;;;;;1259.17;903.93;;;7.10;99.90;;;;;;5011737;28;20449;-75
2023/10/25 03:40:49;;;;;;;1271.50;903.90;;;7.10;99.90;;;;;;5011820;28;20460;-74
2023/10/25 03:43:16;;;;;;;1260.93;898.87;;;7.00;99.90;;;;;;5013307;28;20455;-74
2023/10/25 03:45:43;;;;;;;1258.37;892.27;;;7.00;99.90;;;;;;5015464;28;20971;-74
2023/10/25 03:48:09;;;;;;;1264.23;897.20;;;7.00;99.90;;;;;;5015482;28;20463;-75
2023/10/25 03:50:37;;;;;;;1252.63;905.20;;;7.10;99.90;;;;;;5015394;28;20933;-75
2023/10/25 03:53:05;;;;;;;1260.83;909.57;;;7.10;99.90;;;;;;5015196;28;20453;-75
2023/10/25 03:55:31;;;;;;;1243.53;886.93;;;7.10;99.90;;;;;;5015597;28;20456;-75
2023/10/25 03:58:00;;;;;;;1249.67;872.60;;;7.10;99.90;;;;;;5015378;28;20461;-75
2023/10/25 04:00:27;;;;;;;1233.90;870.00;;;7.20;99.90;;;;;;5015160;28;20797;-75
2023/10/25 04:02:53;;;;;;;1231.20;858.47;;;7.30;99.90;;;;;;5014959;28;20536;-75
2023/10/25 04:05:20;;;;;;;1216.53;865.97;;;7.40;99.90;;;;;;5014863;28;20457;-75
2023/10/25 04:07:50;;;;;;;1241.67;875.50;;;7.40;99.90;;;;;;5014936;28;20462;-75
2023/10/25 04:10:17;;;;;;;1231.67;859.47;;;7.50;99.90;;;;;;5015274;28;20509;-75
2023/10/25 04:12:44;;;;;;;1229.70;868.93;;;7.60;99.90;;;;;;5014991;28;20475;-75
2023/10/25 04:15:12;;;;;;;1228.47;855.73;;;7.70;99.90;;;;;;5014854;28;20450;-75
2023/10/25 04:17:39;;;;;;;1242.20;888.37;;;7.70;99.90;;;;;;5014861;28;20449;-75
2023/10/25 04:20:07;;;;;;;1234.67;854.37;;;7.70;99.90;;;;;;5014604;28;20484;-75
2023/10/25 04:22:36;;;;;;;1245.40;869.10;;;7.80;99.90;;;;;;5014991;28;20503;-75
2023/10/25 04:25:03;;;;;;;1235.33;849.37;;;7.80;99.90;;;;;;5014801;28;20454;-75
2023/10/25 04:27:30;;;;;;;1234.53;866.70;;;7.80;99.90;;;;;;5014429;28;20454;-75
2023/10/25 04:29:57;;;;;;;1231.77;879.37;;;7.80;99.90;;;;;;5014672;28;20480;-75
2023/10/25 04:32:25;;;;;;;1229.07;874.50;;;7.80;99.90;;;;;;5014393;28;20532;-75
2023/10/25 04:34:52;;;;;;;1242.70;866.27;;;7.80;99.90;;;;;;5014730;28;20460;-75
2023/10/25 04:37:19;;;;;;;1245.37;884.00;;;7.80;99.90;;;;;;5014719;28;20467;-75
2023/10/25 04:39:46;;;;;;;1231.40;882.13;;;7.80;99.90;;;;;;5014241;28;20572;-75
2023/10/25 04:42:13;;;;;;;1235.70;855.00;;;7.80;99.90;;;;;;5014411;28;20441;-76
2023/10/25 04:44:39;;;;;;;1251.47;861.87;;;7.70;99.90;;;;;;5014394;28;20586;-75
2023/10/25 04:47:06;;;;;;;1248.07;876.60;;;7.70;99.90;;;;;;5014028;28;20956;-75
2023/10/25 04:49:37;;;;;;;1239.00;891.07;;;7.70;99.90;;;;;;5014150;28;20459;-75
2023/10/25 04:52:04;;;;;;;1230.07;887.30;;;7.70;99.90;;;;;;5014411;28;20507;-75
2023/10/25 04:54:31;;;;;;;1219.27;876.60;;;7.70;99.90;;;;;;5014100;28;20456;-75
2023/10/25 04:56:58;;;;;;;1231.33;885.37;;;7.60;99.90;;;;;;5014042;28;20453;-75
2023/10/25 04:59:25;;;;;;;1230.23;880.03;;;7.60;99.90;;;;;;5013840;28;20477;-74
2023/10/25 05:01:52;;;;;;;1229.70;875.93;;;7.60;99.90;;;;;;5013827;28;20491;-75
2023/10/25 05:04:19;;;;;;;1220.40;896.90;;;7.50;99.90;;;;;;5014336;28;20508;-75
2023/10/25 05:06:48;;;;;;;1231.37;887.87;;;7.50;99.90;;;;;;5013740;28;20469;-75
2023/10/25 05:09:16;;;;;;;1215.87;890.90;;;7.40;99.90;;;;;;5013759;28;20540;-75
2023/10/25 05:11:48;;;;;;;1233.87;904.37;;;7.40;99.90;;;;;;5013835;28;20457;-75
2023/10/25 05:14:15;;;;;;;1221.80;884.80;;;7.40;99.90;;;;;;5013616;28;20540;-75
2023/10/25 05:16:43;;;;;;;1226.07;900.17;;;7.40;99.90;;;;;;5013569;28;20453;-74
2023/10/25 05:19:10;;;;;;;1207.03;892.77;;;7.40;99.90;;;;;;5013706;28;20495;-75
2023/10/25 05:21:42;;;;;;;1208.77;885.80;;;7.30;99.90;;;;;;5013766;28;20487;-75
2023/10/25 05:24:12;;;;;;;1220.33;902.20;;;7.30;99.90;;;;;;5013560;28;20448;-75
2023/10/25 05:26:39;;;;;;;1203.37;862.70;;;7.30;99.90;;;;;;5013278;28;20455;-75
2023/10/25 05:29:07;;;;;;;1224.33;860.60;;;7.30;99.90;;;;;;5013706;28;20456;-75
2023/10/25 05:31:35;;;;;;;1224.87;868.47;;;7.30;99.90;;;;;;5013617;28;20479;-75
2023/10/25 05:34:03;;;;;;;1225.67;879.97;;;7.40;99.90;;;;;;5013526;28;20455;-75
2023/10/25 05:36:30;;;;;;;1229.10;875.13;;;7.40;99.90;;;;;;5013341;28;20465;-75
2023/10/25 05:39:00;;;;;;;1205.67;891.60;;;7.50;99.90;;;;;;5013396;28;20540;-75
2023/10/25 05:41:30;;;;;;;1202.77;876.13;;;7.50;99.90;;;;;;5013487;28;20456;-75
2023/10/25 05:44:05;;;;;;;1225.70;887.60;;;7.60;99.90;;;;;;5013282;28;20460;-75
2023/10/25 05:46:32;;;;;;;1223.90;862.30;;;7.50;99.90;;;;;;5013195;28;20456;-75
2023/10/25 05:48:59;;;;;;;1225.37;866.27;;;7.50;99.90;;;;;;5013184;28;20473;-75
2023/10/25 05:51:27;;;;;;;1210.60;868.77;;;7.50;99.90;;;;;;5013275;28;20531;-75
2023/10/25 05:53:54;;;;;;;1224.63;859.33;;;7.40;99.90;;;;;;5013264;28;20449;-75
2023/10/25 05:56:25;;;;;;;1219.30;874.63;;;7.40;99.90;;;;;;5013207;28;20458;-75
2023/10/25 05:58:54;;;;;;;1197.27;868.60;;;7.40;99.90;;;;;;5013021;28;20738;-75
2023/10/25 06:01:37;;;;;;;1216.10;882.07;;;7.40;99.90;;;;;;5012926;28;20481;-75
2023/10/25 06:04:06;;;;;;;1200.80;889.27;;;7.40;99.90;;;;;;5012898;28;20480;-75
2023/10/25 06:06:36;;;;;;;1213.30;902.13;;;7.40;99.90;;;;;;5012414;28;20825;-75
2023/10/25 06:09:04;;;;;;;1217.43;908.57;;;7.50;99.90;;;;;;5012744;28;20449;-75
2023/10/25 06:11:31;;;;;;;1208.70;902.50;;;7.50;99.90;;;;;;5012977;28;20453;-75
2023/10/25 06:14:00;;;;;;;1223.97;907.97;;;7.60;99.90;;;;;;5011881;28;20550;-75
2023/10/25 06:16:27;;;;;;;1234.37;920.97;;;7.70;99.90;;;;;;5012575;28;20457;-75
2023/10/25 06:18:55;;;;;;;1229.00;914.60;;;7.70;99.90;;;;;;5012530;28;20463;-75
2023/10/25 06:21:22;;;;;;;1226.97;919.80;;;7.80;99.90;;;;;;5012728;28;20512;-75
2023/10/25 06:23:48;;;;;;;1216.40;909.83;;;7.90;99.90;;;;;;5012881;28;20472;-75
2023/10/25 06:26:15;;;;;;;1215.33;897.20;;;7.90;99.90;;;;;;5012650;28;20453;-75
2023/10/25 06:28:42;;;;;;;1192.53;886.83;;;8.00;99.90;;;;;;5012588;28;20453;-75
2023/10/25 06:31:13;;;;;;;1194.50;891.87;;;8.00;99.90;;;;;;5012481;28;20790;-75
2023/10/25 06:33:41;;;;;;;1197.60;894.70;;;8.10;99.90;;;;;;5012673;28;20449;-75
2023/10/25 06:36:09;;;;;;;1198.37;898.23;;;8.10;99.90;;;;;;5012598;28;20480;-75
2023/10/25 06:38:37;;;;;;;1194.43;892.73;;;8.10;99.90;;;;;;5012415;28;20498;-75
2023/10/25 06:41:04;;;;;;;1187.40;893.43;;;8.20;99.90;;;;;;5012439;28;20485;-75
2023/10/25 06:43:32;;;;;;;1185.60;895.77;;;8.20;99.90;;;;;;5012295;28;20454;-77
2023/10/25 06:45:59;;;;;;;1176.20;886.00;;;8.20;99.90;;;;;;5011986;28;20458;-77
2023/10/25 06:48:28;;;;;;;1163.27;884.00;;;8.20;99.90;;;;;;5012299;28;20445;-77
2023/10/25 06:50:58;;;;;;;1169.90;894.37;;;8.20;99.90;;;;;;5012464;28;20452;-77
2023/10/25 06:53:26;;;;;;;1137.33;876.97;;;8.30;99.90;;;;;;5012474;28;20757;-77
2023/10/25 06:55:53;;;;;;;1146.40;894.43;;;8.30;99.90;;;;;;5012101;28;20454;-77
2023/10/25 06:58:20;;;;;;;1143.73;889.43;;;8.40;99.90;;;;;;5012115;28;20454;-77
2023/10/25 07:00:49;;;;;;;1131.03;878.20;;;8.40;99.90;;;;;;5012360;28;20855;-77
2023/10/25 07:03:17;;;;;;;1131.80;887.53;;;8.50;99.90;;;;;;5012288;28;20454;-77
2023/10/25 07:05:46;;;;;;;1120.90;885.10;;;8.50;99.90;;;;;;5012191;28;20484;-77
2023/10/25 07:08:14;;;;;;;1124.40;887.27;;;8.50;99.90;;;;;;5011922;28;20483;-77
2023/10/25 07:10:42;;;;;;;1104.87;883.97;;;8.60;99.90;;;;;;5010733;28;20448;-77
2023/10/25 07:13:09;;;;;;;1106.10;878.63;;;8.60;99.90;;;;;;5011943;28;20499;-77
2023/10/25 07:15:36;;;;;;;1095.50;872.80;;;8.60;99.90;;;;;;5011951;28;20456;-77
2023/10/25 07:18:02;;;;;;;1075.63;869.97;;;8.70;99.90;;;;;;5012699;28;20931;-77
2023/10/25 07:20:29;;;;;;;1055.60;872.40;;;8.70;99.90;;;;;;5015517;28;20481;-77
2023/10/25 07:22:57;;;;;;;1055.30;892.33;;;8.80;99.90;;;;;;5015440;28;21029;-77
2023/10/25 07:25:24;;;;;;;1041.80;880.57;;;8.90;99.90;;;;;;5015153;28;20459;-77
2023/10/25 07:27:51;;;;;;;1019.20;889.17;;;8.90;99.90;;;;;;5015323;28;20458;-77
2023/10/25 07:30:18;;;;;;;1005.57;877.57;;;9.00;99.90;;;;;;5015439;28;20937;-77
2023/10/25 07:32:45;;;;;;;981.17;874.20;;;9.00;99.90;;;;;;5015308;28;20455;-77
2023/10/25 07:35:12;;;;;;;992.70;886.87;;;9.10;99.90;;;;;;5015105;28;20453;-77
2023/10/25 07:37:39;;;;;;;989.47;886.53;;;9.10;99.90;;;;;;5015262;28;21012;-77
2023/10/25 07:40:08;;;;;;;984.67;884.40;;;9.20;99.90;;;;;;5014891;28;20484;-77
2023/10/25 07:42:35;;;;;;;996.83;901.97;;;9.30;99.90;;;;;;5015329;28;20447;-77
2023/10/25 07:45:03;;;;;;;989.80;901.07;;;9.40;99.90;;;;;;5014824;28;20451;-77
2023/10/25 07:47:30;;;;;;;996.07;914.53;;;9.50;99.90;;;;;;5015001;28;20556;-77
2023/10/25 07:49:57;;;;;;;992.67;914.57;;;9.60;99.90;;;;;;5015272;28;20887;-77
2023/10/25 07:52:25;;;;;;;985.77;912.90;;;9.70;99.90;;;;;;5014590;28;20459;-76
2023/10/25 07:54:52;;;;;;;959.30;893.00;;;9.80;99.90;;;;;;5014405;28;20454;-77
2023/10/25 07:57:20;;;;;;;968.90;901.40;;;9.90;99.90;;;;;;5023168;28;20466;-77
2023/10/25 07:59:47;;;;;;;948.57;886.63;;;10.10;99.90;;;;;;5034184;28;20454;-77
2023/10/25 08:02:14;;;;;;;869.30;817.00;;;10.20;99.90;;;;;;5028502;28;20452;-77
2023/10/25 08:04:42;;;;;;;777.53;735.67;;;10.30;99.90;;;;;;5017884;28;20456;-77
2023/10/25 08:07:10;;;;;;;758.60;719.40;;;10.30;99.90;;;;;;5028627;28;20483;-77
2023/10/25 08:09:38;;;;;;;681.37;648.77;;;10.40;99.90;;;;;;5034662;28;20502;-77
2023/10/25 08:12:05;;;;;;;635.13;605.70;;;10.40;99.90;;;;;;5028911;28;20444;-77
2023/10/25 08:14:33;;;;;;;595.23;568.23;;;10.50;99.90;;;;;;5024416;28;20486;-77
2023/10/25 08:17:00;;;;;;;591.53;565.00;;;10.50;99.90;;;;;;5014751;28;20447;-77
2023/10/25 08:19:27;;;;;;;543.60;520.00;;;10.60;99.90;;;;;;5014573;28;20453;-77
2023/10/25 08:21:54;;;;;;;553.77;530.27;;;10.60;99.90;;;;;;5014465;28;20481;-77
2023/10/25 08:24:20;;;;;;;506.87;485.67;;;10.70;99.90;;;;;;5014950;28;20457;-77
2023/10/25 08:26:47;;;;;;;461.53;442.83;;;10.80;99.90;;;;;;5014429;28;20464;-77
2023/10/25 08:29:14;;;;;;;484.13;464.60;;;11.00;99.90;;;;;;5014458;28;20454;-77
2023/10/25 08:31:45;;;;;;;398.00;382.97;;;11.20;99.90;;;;;;5021099;28;20460;-77
2023/10/25 08:34:12;;;;;;;357.70;344.73;;;11.20;99.90;;;;;;5021589;28;20494;-77
2023/10/25 08:36:39;;;;;;;282.80;273.10;;;11.20;99.90;;;;;;5014359;28;20455;-77
2023/10/25 08:39:06;;;;;;;315.00;303.73;;;11.10;99.90;;;;;;5022955;28;20477;-77
2023/10/25 08:41:35;;;;;;;333.10;320.50;;;11.00;99.90;;;;;;5033984;28;20856;-77
2023/10/25 08:44:03;;;;;;;302.37;291.87;;;10.90;99.90;;;;;;5027751;28;20484;-77
2023/10/25 08:46:32;;;;;;;329.80;317.97;;;10.80;99.90;;;;;;5023081;28;20446;-77
2023/10/25 08:49:00;;;;;;;363.10;349.77;;;10.70;99.90;;;;;;5014366;28;20493;-77
2023/10/25 08:51:27;;;;;;;492.03;471.93;;;10.70;99.90;;;;;;5014172;28;20506;-77
2023/10/25 08:53:59;;;;;;;597.97;571.90;;;10.70;99.90;;;;;;5016269;28;20459;-78
2023/10/25 08:56:26;;;;;;;677.47;644.80;;;10.60;99.90;;;;;;5021747;28;20453;-79
2023/10/25 08:58:57;;;;;;;768.53;725.83;;;10.60;99.90;;;;;;5013944;28;20467;-80
2023/10/25 09:01:24;;;;;;;829.87;781.53;;;10.50;99.90;;;;;;5013819;28;20487;-84
2023/10/25 09:03:51;;;;;;;862.13;809.77;;;10.40;99.90;;;;;;5013884;28;20516;-85
2023/10/25 09:06:26;;;;;;;888.17;830.10;;;10.40;99.90;;;;;;5014993;28;20469;-87
2023/10/25 09:09:02;;;;;;;897.13;835.40;;;10.30;99.90;;;;;;5003913;28;20452;-85
2023/10/25 09:11:43;;;;;;;904.80;839.77;;;10.30;99.90;;;;;;5021781;28;20441;-85
2023/10/25 09:14:10;;;;;;;895.67;830.10;;;10.20;99.90;;;;;;5013680;28;20463;-83
2023/10/25 09:16:40;;;;;;;894.07;827.87;;;10.20;99.90;;;;;;5032030;28;20506;-83
2023/10/25 09:19:07;;;;;;;900.80;834.70;;;10.20;99.90;;;;;;5029041;28;20449;-83
2023/10/25 09:21:35;;;;;;;902.73;832.73;;;10.20;99.90;;;;;;5015136;28;20486;-83
2023/10/25 09:24:07;;;;;;;909.27;836.40;;;10.20;99.90;;;;;;5026571;28;20463;-83
2023/10/25 09:26:35;;;;;;;902.90;836.00;;;10.20;99.90;;;;;;5030046;28;20924;-83
2023/10/25 09:29:03;;;;;;;907.07;838.50;;;10.30;99.90;;;;;;5018668;28;20523;-82
2023/10/25 09:31:32;;;;;;;913.17;845.90;;;10.30;99.90;;;;;;5033445;28;20498;-82
2023/10/25 09:34:00;;;;;;;928.53;858.67;;;10.30;99.90;;;;;;5015254;28;20449;-82
2023/10/25 09:36:28;;;;;;;931.37;865.40;;;10.30;99.90;;;;;;5013283;28;20482;-82
2023/10/25 09:38:56;;;;;;;930.57;862.03;;;10.30;99.90;;;;;;5015179;28;20449;-81
2023/10/25 09:41:26;;;;;;;921.37;853.50;;;10.40;99.90;;;;;;5032281;28;20537;-81
2023/10/25 09:43:58;;;;;;;906.07;843.37;;;10.40;99.90;;;;;;5023887;28;20453;-81
2023/10/25 09:46:30;;;;;;;905.17;843.47;;;10.40;99.90;;;;;;5031671;28;20951;-81
2023/10/25 09:49:03;;;;;;;913.90;849.53;;;10.40;99.90;;;;;;5032493;28;20456;-81
2023/10/25 09:51:46;;;;;;;905.27;843.97;;;10.50;99.90;;;;;;5015733;28;20446;-83
2023/10/25 09:54:19;;;;;;;911.57;848.60;;;10.50;99.90;;;;;;5013723;28;20936;-82
2023/10/25 09:56:49;;;;;;;919.10;856.83;;;10.60;99.90;;;;;;5013021;28;20536;-83
2023/10/25 09:59:19;;;;;;;910.93;847.40;;;10.60;99.90;;;;;;5013077;28;20460;-84
2023/10/25 10:01:47;;;;;;;912.13;848.10;;;10.60;99.90;;;;;;5012893;28;20564;-85
2023/10/25 10:04:20;;;;;;;917.63;852.37;;;10.60;99.90;;;;;;5013198;28;20499;-84
2023/10/25 10:06:54;;;;;;;913.80;846.63;;;10.70;99.90;;;;;;5012964;28;20465;-83
2023/10/25 10:09:32;;;;;;;910.73;848.03;;;10.90;99.90;;;;;;5013014;28;20436;-83
2023/10/25 10:12:05;;;;;;;893.23;838.90;;;10.90;99.90;;;;;;5012975;28;20803;-82
2023/10/25 10:14:33;;;;;;;894.83;840.03;;;10.90;99.90;;;;;;5013215;28;20794;-82
2023/10/25 10:17:05;;;;;;;884.67;831.60;;;10.90;99.90;;;;;;5013019;28;20980;-81
2023/10/25 10:19:32;;;;;;;833.93;788.43;;;10.90;99.90;;;;;;5013135;28;20461;-82
2023/10/25 10:22:11;;;;;;;820.83;776.50;;;10.90;99.90;;;;;;5012780;28;20489;-81
2023/10/25 10:24:49;;;;;;;808.03;767.23;;;10.90;99.90;;;;;;5012754;28;20507;-81
2023/10/25 10:27:18;;;;;;;783.67;745.50;;;10.90;99.90;;;;;;5012950;28;20456;-81
2023/10/25 10:29:46;;;;;;;770.80;733.60;;;10.90;99.90;;;;;;5012755;28;20940;-81
2023/10/25 10:32:13;;;;;;;829.97;786.07;;;10.90;99.90;;;;;;5012642;28;20979;-80
2023/10/25 10:34:44;;;;;;;786.97;748.17;;;10.80;99.90;;;;;;5012674;28;20459;-80
2023/10/25 10:37:12;;;;;;;767.00;730.10;;;10.90;99.90;;;;;;5012519;28;20454;-80
2023/10/25 10:40:13;;;;;;;771.33;734.40;;;10.90;99.90;;;;;;5012577;28;20946;-80
2023/10/25 10:42:40;;;;;;;800.43;759.60;;;10.90;99.90;;;;;;5012579;28;20487;-79
2023/10/25 10:45:11;;;;;;;812.80;770.93;;;10.90;99.90;;;;;;5012510;28;20923;-80
2023/10/25 10:47:42;;;;;;;843.57;797.17;;;10.80;99.90;;;;;;5012554;28;20461;-79
2023/10/25 10:50:11;;;;;;;863.53;813.63;;;10.80;99.90;;;;;;5012699;28;20461;-79
2023/10/25 10:52:39;;;;;;;845.30;797.53;;;10.90;99.90;;;;;;5014658;28;20496;-80
2023/10/25 10:55:09;;;;;;;853.77;804.90;;;10.90;99.90;;;;;;5016924;28;20453;-81
2023/10/25 10:57:37;;;;;;;878.93;824.77;;;10.90;99.90;;;;;;5016691;28;20453;-83
2023/10/25 11:00:07;;;;;;;903.30;843.60;;;10.90;99.90;;;;;;5016409;28;20454;-87
2023/10/25 11:02:35;;;;;;;897.13;831.77;;;10.80;99.90;;;;;;5016540;28;20849;-88
2023/10/25 11:05:02;;;;;;;892.67;822.00;;;10.70;99.90;;;;;;5016532;28;20824;-88
2023/10/25 11:07:29;;;;;;;894.00;819.17;;;10.70;99.90;;;;;;5016263;28;20466;-90
2023/10/25 11:09:56;;;;;;;898.43;819.87;;;10.60;99.90;;;;;;5015618;28;20450;-90
2023/10/25 11:12:25;;;;;;;905.90;822.60;;;10.60;99.90;;;;;;5016123;28;20452;-90
2023/10/25 11:14:52;;;;;;;916.67;829.63;;;10.60;99.90;;;;;;5016521;28;20888;-91
2023/10/25 11:17:19;;;;;;;914.33;824.47;;;10.60;99.90;;;;;;5016585;28;20535;-90
2023/10/25 11:19:47;;;;;;;925.70;832.40;;;10.60;99.90;;;;;;5016426;28;20455;-90
2023/10/25 11:22:15;;;;;;;928.77;834.87;;;10.60;99.90;;;;;;5016072;28;20477;-90
2023/10/25 11:24:41;;;;;;;931.60;836.57;;;10.70;99.90;;;;;;5015960;28;20457;-90
2023/10/25 11:27:08;;;;;;;935.80;837.63;;;10.70;99.90;;;;;;5015910;28;20546;-90
2023/10/25 11:29:37;;;;;;;943.80;844.30;;;10.60;99.90;;;;;;5016151;28;20459;-90
2023/10/25 11:32:11;;;;;;;960.57;859.27;;;10.70;99.90;;;;;;5016048;28;20536;-89
2023/10/25 11:34:41;;;;;;;945.70;842.10;;;10.70;99.90;;;;;;5020389;28;20528;-89
2023/10/25 11:37:08;;;;;;;939.97;836.20;;;10.70;99.90;;;;;;5015616;28;20449;-88
2023/10/25 11:39:57;;;;;;;949.00;847.10;;;10.70;99.90;;;;;;5015390;28;20453;-88
2023/10/25 11:42:24;;;;;;;948.10;843.80;;;10.70;99.90;;;;;;5017540;28;20489;-88
2023/10/25 11:44:53;;;;;;;968.43;861.00;;;10.70;99.90;;;;;;5023144;28;20955;-88
2023/10/25 11:47:21;;;;;;;977.57;863.70;;;10.70;99.90;;;;;;5015414;28;20459;-87
2023/10/25 11:49:52;;;;;;;998.50;859.60;;;10.70;99.90;;;;;;5003019;28;20480;-88
2023/10/25 11:52:22;;;;;;;1046.80;895.08;;;10.70;99.90;;;;;;5032325;28;20455;-89
2023/10/25 11:54:54;;;;;;;977.47;844.87;;;10.60;99.90;;;;;;5026996;28;20186;-89
2023/10/25 11:57:22;;;;;;;984.47;851.67;;;10.70;99.90;;;;;;5023582;28;20555;-89
2023/10/25 11:59:48;;;;;;;986.20;851.47;;;10.70;99.90;;;;;;5015053;28;20506;-92
2023/10/25 12:02:18;;;;;;;998.40;870.30;;;10.70;99.90;;;;;;5017548;28;20481;-90
2023/10/25 12:04:45;;;;;;;1002.10;840.57;;;10.70;99.90;;;;;;5014592;28;20445;-90
2023/10/25 12:07:11;;;;;;;1008.73;850.00;;;10.70;99.90;;;;;;5014741;28;20837;-88
2023/10/25 12:09:39;;;;;;;986.80;838.70;;;10.80;99.90;;;;;;5015120;28;20459;-89
2023/10/25 12:12:06;;;;;;;1012.30;844.70;;;10.80;99.90;;;;;;5015011;28;20488;-87
2023/10/25 12:14:33;;;;;;;1008.93;857.30;;;10.90;99.90;;;;;;5015022;28;20542;-88